Time;durP1;ratioP1;P1;durP2;ratioP2;P2;SDS_P1;SDS_P2;PMS_P1;PMS_P2;Temp;Humidity;BMP_temperature;BMP_pressure;BME280_temperature;BME280_humidity;BME280_pressure;Samples;Min_cycle;Max_cycle;Signal;HPM_P1;HPM_P2
2023/05/04 00:00:31;;;;;;;;;8.33;8.00;;;;;18.22;nan;100924.38;4870076;29;45536;-83
2023/05/04 00:02:56;;;;;;;;;7.00;7.00;;;;;18.18;nan;100921.75;4854381;29;45516;-83
2023/05/04 00:05:22;;;;;;;;;12.00;11.00;;;;;18.17;nan;100919.94;4870598;29;47929;-83
2023/05/04 00:07:47;;;;;;;;;11.00;8.67;;;;;18.14;nan;100911.94;4870242;29;45732;-83
2023/05/04 00:10:12;;;;;;;;;8.33;8.33;;;;;18.13;nan;100906.56;4869096;29;47421;-83
2023/05/04 00:12:38;;;;;;;;;9.00;8.00;;;;;18.14;nan;100900.28;4869219;29;45857;-83
2023/05/04 00:15:04;;;;;;;;;8.00;8.00;;;;;18.12;nan;100894.91;4868144;29;45432;-83
2023/05/04 00:17:30;;;;;;;;;6.67;6.67;;;;;18.08;nan;100897.69;4870324;29;45454;-83
2023/05/04 00:19:56;;;;;;;;;10.00;8.00;;;;;18.09;nan;100899.44;4868986;29;47031;-83
2023/05/04 00:22:21;;;;;;;;;7.00;7.00;;;;;18.07;nan;100893.19;4871162;29;45518;-83
2023/05/04 00:24:47;;;;;;;;;7.33;7.00;;;;;18.05;nan;100893.22;4873267;29;45323;-83
2023/05/04 00:27:13;;;;;;;;;9.00;7.67;;;;;17.97;nan;100887.94;4872040;29;45421;-83
2023/05/04 00:29:39;;;;;;;;;8.33;7.33;;;;;18.04;nan;100893.22;4870943;29;45695;-83
2023/05/04 00:32:04;;;;;;;;;6.33;6.33;;;;;17.98;nan;100880.78;4871239;29;45864;-83
2023/05/04 00:34:30;;;;;;;;;9.67;9.67;;;;;17.99;nan;100879.84;4870760;29;45475;-83
2023/05/04 00:36:56;;;;;;;;;8.00;8.00;;;;;17.93;nan;100878.13;4871060;29;45376;-83
2023/05/04 00:39:22;;;;;;;;;8.00;7.00;;;;;17.93;nan;100874.56;4870394;29;46201;-83
2023/05/04 00:41:47;;;;;;;;;7.00;7.00;;;;;17.92;nan;100878.16;4868792;29;45475;-83
2023/05/04 00:44:13;;;;;;;;;6.33;6.33;;;;;17.89;nan;100868.31;4868999;29;45518;-83
2023/05/04 00:46:39;;;;;;;;;12.67;9.00;;;;;17.86;nan;100856.72;4871916;29;45330;-83
2023/05/04 00:49:06;;;;;;;;;8.33;8.33;;;;;17.83;nan;100859.41;4870597;29;48206;-84
2023/05/04 00:51:32;;;;;;;;;9.67;9.67;;;;;17.82;nan;100857.66;4869664;29;46249;-82
2023/05/04 00:53:58;;;;;;;;;3.33;3.33;;;;;17.75;nan;100849.66;4875415;29;45336;-82
2023/05/04 00:56:24;;;;;;;;;8.00;8.00;;;;;17.74;nan;100847.00;4871178;29;45368;-83
2023/05/04 00:59:31;;;;;;;;;6.33;6.33;;;;;17.98;nan;100853.88;4869832;29;45964;-83
2023/05/04 01:02:03;;;;;;;;;11.33;11.33;;;;;17.95;nan;100853.88;4872942;29;45768;-84
2023/05/04 01:04:28;;;;;;;;;8.67;8.67;;;;;17.77;nan;100845.16;4873170;29;45365;-83
2023/05/04 01:07:12;;;;;;;;;13.00;9.00;;;;;17.91;nan;100849.47;4872182;29;45456;-83
2023/05/04 01:09:52;;;;;;;;;9.00;7.67;;;;;17.87;nan;100850.44;4873078;29;45376;-83
2023/05/04 01:12:34;;;;;;;;;8.00;8.00;;;;;17.83;nan;100843.28;4857034;29;45716;-82
2023/05/04 01:15:00;;;;;;;;;8.00;8.00;;;;;17.66;nan;100843.53;4871948;29;45395;-82
2023/05/04 01:17:26;;;;;;;;;9.67;9.67;;;;;17.64;nan;100839.97;4874590;29;45479;-82
2023/05/04 01:19:52;;;;;;;;;10.67;10.67;;;;;17.59;nan;100831.94;4872247;29;47811;-83
2023/05/04 01:22:19;;;;;;;;;9.67;9.67;;;;;17.62;nan;100837.28;4872693;29;45456;-83
2023/05/04 01:24:45;;;;;;;;;13.33;11.33;;;;;17.58;nan;100840.94;4872846;29;45873;-83
2023/05/04 01:27:36;;;;;;;;;9.33;8.67;;;;;17.65;nan;100823.78;4870394;29;45475;-83
2023/05/04 01:30:13;;;;;;;;;11.00;8.67;;;;;17.68;nan;100833.63;4873151;29;46496;-83
2023/05/04 01:32:41;;;;;;;;;11.33;9.33;;;;;17.58;nan;100824.78;4873124;29;45855;-82
2023/05/04 01:35:07;;;;;;;;;10.33;8.67;;;;;17.46;nan;100822.28;4874159;29;45484;-83
2023/05/04 01:37:33;;;;;;;;;12.67;10.67;;;;;17.44;nan;100821.41;4855879;29;45413;-83
2023/05/04 01:39:58;;;;;;;;;12.33;12.00;;;;;17.39;nan;100816.97;4854575;29;46866;-83
2023/05/04 01:42:23;;;;;;;;;12.00;11.00;;;;;17.36;nan;100808.06;4872474;29;45437;-83
2023/05/04 01:44:49;;;;;;;;;9.67;9.67;;;;;17.41;nan;100814.28;4871677;29;45688;-83
2023/05/04 01:47:14;;;;;;;;;11.00;11.00;;;;;17.37;nan;100816.09;4874048;29;45412;-82
2023/05/04 01:49:40;;;;;;;;;11.67;11.00;;;;;17.37;nan;100813.41;4872762;29;45838;-83
2023/05/04 01:52:05;;;;;;;;;12.00;9.33;;;;;17.35;nan;100815.22;4873821;29;45661;-83
2023/05/04 01:54:31;;;;;;;;;12.67;10.67;;;;;17.28;nan;100805.44;4871920;29;45522;-82
2023/05/04 01:56:56;;;;;;;;;15.00;14.00;;;;;17.27;nan;100811.75;4873083;29;45440;-82
2023/05/04 01:59:21;;;;;;;;;13.00;12.33;;;;;17.25;nan;100805.50;4872900;29;45605;-82
2023/05/04 02:01:47;;;;;;;;;11.33;9.00;;;;;17.26;nan;100812.66;4871282;29;45319;-82
2023/05/04 02:04:15;;;;;;;;;13.00;11.00;;;;;17.20;nan;100815.41;4870907;29;45510;-83
2023/05/04 02:06:47;;;;;;;;;9.67;9.67;;;;;17.17;nan;100823.53;4872389;29;45863;-82
2023/05/04 02:09:16;;;;;;;;;11.67;11.67;;;;;17.20;nan;100829.72;4872029;29;45793;-82
2023/05/04 02:11:41;;;;;;;;;10.00;8.50;;;;;17.15;nan;100830.72;4872030;29;45400;-83
2023/05/04 02:14:08;;;;;;;;;11.00;11.00;;;;;17.20;nan;100823.47;4871105;29;44976;-83
2023/05/04 02:16:34;;;;;;;;;12.00;11.00;;;;;17.07;nan;100825.44;4856759;29;45747;-82
2023/05/04 02:19:02;;;;;;;;;13.67;13.67;;;;;17.21;nan;100822.59;4871133;29;46065;-82
2023/05/04 02:21:28;;;;;;;;;10.67;10.67;;;;;17.04;nan;100809.31;4871420;29;45419;-84
2023/05/04 02:23:53;;;;;;;;;10.67;10.67;;;;;17.04;nan;100811.13;4870530;29;45536;-83
2023/05/04 02:26:19;;;;;;;;;11.00;11.00;;;;;16.97;nan;100795.06;4871956;29;45441;-83
2023/05/04 02:28:45;;;;;;;;;12.33;12.33;;;;;17.00;nan;100805.78;4873056;29;45547;-83
2023/05/04 02:31:10;;;;;;;;;8.33;8.33;;;;;16.97;nan;100813.88;4870941;29;45399;-83
2023/05/04 02:33:35;;;;;;;;;13.00;13.00;;;;;16.92;nan;100801.41;4872246;29;45590;-83
2023/05/04 02:36:06;;;;;;;;;15.67;13.00;;;;;17.00;nan;100803.09;4869149;29;45501;-82
2023/05/04 02:38:31;;;;;;;;;17.00;14.33;;;;;16.86;nan;100802.34;4852823;29;48152;-83
2023/05/04 02:40:57;;;;;;;;;13.67;11.00;;;;;16.90;nan;100809.47;4869041;29;45759;-82
2023/05/04 02:43:22;;;;;;;;;12.33;11.33;;;;;16.90;nan;100814.84;4867534;29;45460;-82
2023/05/04 02:45:48;;;;;;;;;5.00;5.00;;;;;16.86;nan;100804.16;4869252;29;45479;-83
2023/05/04 02:48:13;;;;;;;;;11.33;11.33;;;;;16.85;nan;100805.97;4868544;29;45526;-84
2023/05/04 02:50:39;;;;;;;;;13.67;13.00;;;;;16.81;nan;100801.53;4866870;29;45005;-83
2023/05/04 02:53:04;;;;;;;;;12.33;11.67;;;;;16.79;nan;100803.31;4867209;29;45476;-84
2023/05/04 02:55:31;;;;;;;;;9.33;9.33;;;;;16.88;nan;100803.22;4867858;29;45762;-82
2023/05/04 02:57:56;;;;;;;;;12.33;10.00;;;;;16.77;nan;100799.75;4867530;29;47301;-82
2023/05/04 03:00:21;;;;;;;;;12.00;11.00;;;;;16.70;nan;100781.91;4868934;29;45488;-82
2023/05/04 03:02:47;;;;;;;;;13.67;13.67;;;;;16.73;nan;100792.63;4851245;29;45420;-82
2023/05/04 03:05:12;;;;;;;;;9.33;9.33;;;;;16.71;nan;100789.06;4868851;29;45437;-82
2023/05/04 03:07:38;;;;;;;;;10.67;9.67;;;;;16.69;nan;100790.88;4868090;29;45331;-82
2023/05/04 03:10:04;;;;;;;;;12.00;12.00;;;;;16.68;nan;100781.03;4868248;29;45447;-83
2023/05/04 03:12:29;;;;;;;;;12.00;12.00;;;;;16.66;nan;100783.72;4870076;29;45419;-83
2023/05/04 03:14:55;;;;;;;;;12.67;11.33;;;;;16.65;nan;100781.09;4869725;29;45502;-83
2023/05/04 03:17:20;;;;;;;;;12.67;11.00;;;;;16.59;nan;100765.91;4868717;29;48213;-83
2023/05/04 03:19:46;;;;;;;;;12.67;12.67;;;;;16.68;nan;100775.66;4868840;29;45505;-83
2023/05/04 03:22:11;;;;;;;;;13.67;12.33;;;;;16.60;nan;100767.69;4869225;29;45479;-83
2023/05/04 03:24:37;;;;;;;;;13.00;11.33;;;;;16.58;nan;100766.81;4869857;29;45502;-83
2023/05/04 03:27:02;;;;;;;;;15.00;12.33;;;;;16.58;nan;100770.41;4870290;29;47971;-83
2023/05/04 03:29:28;;;;;;;;;12.33;12.00;;;;;16.57;nan;100770.41;4868677;29;45449;-82
2023/05/04 03:31:53;;;;;;;;;14.67;13.33;;;;;16.52;nan;100762.41;4852079;29;45389;-83
2023/05/04 03:34:20;;;;;;;;;12.00;12.00;;;;;16.47;nan;100753.50;4867821;29;45450;-83
2023/05/04 03:36:49;;;;;;;;;12.00;12.00;;;;;16.52;nan;100754.34;4852983;29;47123;-84
2023/05/04 03:39:17;;;;;;;;;11.00;10.00;;;;;16.47;nan;100756.19;4868652;29;45716;-84
2023/05/04 03:41:43;;;;;;;;;15.33;13.00;;;;;16.46;nan;100756.19;4867620;29;45522;-84
2023/05/04 03:44:08;;;;;;;;;13.33;13.33;;;;;16.43;nan;100765.19;4869304;29;45462;-83
2023/05/04 03:46:35;;;;;;;;;10.67;10.33;;;;;16.53;nan;100763.31;4868352;29;47418;-83
2023/05/04 03:49:01;;;;;;;;;14.00;11.00;;;;;16.42;nan;100757.13;4871318;29;45408;-83
2023/05/04 03:51:26;;;;;;;;;12.67;11.67;;;;;16.37;nan;100751.81;4853607;29;45783;-84
2023/05/04 03:53:52;;;;;;;;;14.67;14.67;;;;;16.43;nan;100756.25;4867346;29;45466;-83
2023/05/04 03:56:17;;;;;;;;;12.33;12.33;;;;;16.40;nan;100750.00;4853963;29;47816;-84
2023/05/04 03:58:42;;;;;;;;;13.33;11.67;;;;;16.40;nan;100752.69;4871276;29;45498;-84
2023/05/04 04:01:08;;;;;;;;;18.00;13.00;;;;;16.34;nan;100741.09;4869260;29;45484;-84
2023/05/04 04:03:35;;;;;;;;;13.67;12.33;;;;;16.39;nan;100750.88;4869614;29;45596;-84
2023/05/04 04:06:02;;;;;;;;;14.00;13.00;;;;;16.39;nan;100752.69;4852791;29;47860;-84
2023/05/04 04:08:28;;;;;;;;;12.00;12.00;;;;;16.37;nan;100738.41;4868219;29;45847;-84
2023/05/04 04:10:54;;;;;;;;;15.00;13.33;;;;;16.38;nan;100748.22;4869759;29;44845;-84
2023/05/04 04:13:19;;;;;;;;;13.67;12.67;;;;;16.37;nan;100750.00;4868607;29;45755;-83
2023/05/04 04:15:49;;;;;;;;;16.33;14.33;;;;;16.51;nan;100746.31;4869613;29;46227;-84
2023/05/04 04:18:14;;;;;;;;;14.33;13.33;;;;;16.35;nan;100748.25;4868738;29;45254;-83
2023/05/04 04:20:39;;;;;;;;;16.00;15.00;;;;;16.34;nan;100744.69;4865720;29;45363;-84
2023/05/04 04:23:05;;;;;;;;;11.00;11.00;;;;;16.33;nan;100752.75;4866064;29;45824;-84
2023/05/04 04:25:30;;;;;;;;;13.67;11.00;;;;;16.28;nan;100736.69;4869664;29;45555;-83
2023/05/04 04:27:56;;;;;;;;;15.00;14.33;;;;;16.27;nan;100736.72;4871401;29;45522;-82
2023/05/04 04:30:21;;;;;;;;;14.67;14.67;;;;;16.26;nan;100729.53;4870431;29;45528;-83
2023/05/04 04:32:48;;;;;;;;;13.67;13.67;;;;;16.25;nan;100723.28;4871377;29;45475;-83
2023/05/04 04:35:14;;;;;;;;;17.00;16.00;;;;;16.26;nan;100727.78;4852984;29;45615;-84
2023/05/04 04:37:40;;;;;;;;;12.00;12.00;;;;;16.21;nan;100716.19;4871256;29;45578;-83
2023/05/04 04:40:06;;;;;;;;;14.33;12.33;;;;;16.24;nan;100713.47;4872021;29;45512;-84
2023/05/04 04:42:32;;;;;;;;;14.00;14.00;;;;;16.19;nan;100718.88;4853798;29;45468;-83
2023/05/04 04:44:58;;;;;;;;;15.00;14.00;;;;;16.20;nan;100715.31;4869435;29;46036;-83
2023/05/04 04:47:24;;;;;;;;;14.67;14.67;;;;;16.22;nan;100707.25;4853915;29;45421;-83
2023/05/04 04:49:49;;;;;;;;;17.00;15.00;;;;;16.22;nan;100696.50;4871097;29;45457;-82
2023/05/04 04:52:16;;;;;;;;;14.33;12.00;;;;;16.18;nan;100689.41;4870942;29;45762;-82
2023/05/04 04:54:42;;;;;;;;;14.67;11.67;;;;;16.15;nan;100684.03;4869862;29;48308;-82
2023/05/04 04:57:08;;;;;;;;;14.00;14.00;;;;;16.22;nan;100690.22;4868407;29;45598;-83
2023/05/04 04:59:34;;;;;;;;;13.33;12.67;;;;;16.22;nan;100679.50;4869463;29;45408;-83
2023/05/04 05:02:01;;;;;;;;;13.33;13.33;;;;;16.22;nan;100691.16;4870411;29;45469;-82
2023/05/04 05:04:27;;;;;;;;;14.67;13.67;;;;;16.20;nan;100692.94;4868278;29;45299;-83
2023/05/04 05:06:53;;;;;;;;;16.67;14.67;;;;;16.19;nan;100689.34;4868037;29;45288;-83
2023/05/04 05:09:21;;;;;;;;;18.00;16.33;;;;;16.19;nan;100693.84;4868933;29;45436;-84
2023/05/04 05:11:47;;;;;;;;;13.00;13.00;;;;;16.21;nan;100683.97;4870460;29;45810;-83
2023/05/04 05:14:12;;;;;;;;;13.00;11.33;;;;;16.15;nan;100684.94;4869430;29;46563;-83
2023/05/04 05:16:38;;;;;;;;;15.00;15.00;;;;;16.19;nan;100692.03;4869030;29;45431;-83
2023/05/04 05:19:06;;;;;;;;;13.00;11.00;;;;;16.38;nan;100699.91;4869468;29;45424;-82
2023/05/04 05:21:32;;;;;;;;;15.00;13.33;;;;;16.24;nan;100699.16;4871242;29;45591;-82
2023/05/04 05:23:57;;;;;;;;;13.33;13.33;;;;;16.22;nan;100690.22;4869836;29;46287;-83
2023/05/04 05:26:23;;;;;;;;;17.33;15.00;;;;;16.25;nan;100687.53;4868846;29;45443;-83
2023/05/04 05:28:49;;;;;;;;;15.00;15.00;;;;;16.28;nan;100692.84;4868741;29;45488;-84
2023/05/04 05:31:14;;;;;;;;;14.33;13.00;;;;;16.32;nan;100683.84;4869925;29;44838;-84
2023/05/04 05:33:40;;;;;;;;;14.00;14.00;;;;;16.48;nan;100696.25;4867292;29;47022;-84
2023/05/04 05:36:13;;;;;;;;;14.67;13.00;;;;;16.59;nan;100697.00;4867765;29;45513;-84
2023/05/04 05:38:38;;;;;;;;;12.67;12.67;;;;;16.70;nan;100704.03;4853776;29;45235;-83
2023/05/04 05:44:27;;;;;;;;;15.00;13.00;;;;;17.08;nan;100724.19;4871479;29;45458;-83
2023/05/04 05:46:52;;;;;;;;;17.00;17.00;;;;;17.05;nan;100708.09;4871157;29;45698;-85
2023/05/04 05:49:18;;;;;;;;;18.00;16.33;;;;;17.11;nan;100710.72;4872582;29;45312;-83
2023/05/04 05:51:43;;;;;;;;;16.00;16.00;;;;;17.16;nan;100706.16;4871916;29;45405;-84
2023/05/04 05:54:12;;;;;;;;;14.33;13.33;;;;;17.20;nan;100707.91;4869613;29;48190;-84
2023/05/04 05:56:38;;;;;;;;;12.33;12.33;;;;;17.29;nan;100718.53;4870827;29;45364;-83
2023/05/04 05:59:03;;;;;;;;;15.67;14.33;;;;;17.39;nan;100705.84;4872196;29;45342;-83
2023/05/04 06:01:34;;;;;;;;;17.33;16.33;;;;;17.67;nan;100700.03;4873981;29;45480;-81
2023/05/04 06:04:02;;;;;;;;;16.00;16.00;;;;;17.73;nan;100698.16;4871550;29;47236;-82
2023/05/04 06:06:28;;;;;;;;;13.67;13.33;;;;;17.63;nan;100685.75;4870775;29;44911;-82
2023/05/04 06:08:55;;;;;;;;;16.67;14.33;;;;;17.82;nan;100688.16;4875013;29;45322;-84
2023/05/04 06:11:23;;;;;;;;;16.00;14.00;;;;;17.74;nan;100681.09;4876639;29;46005;-85
2023/05/04 06:13:51;;;;;;;;;18.00;16.00;;;;;17.85;nan;100677.38;4873985;29;47373;-83
2023/05/04 06:16:17;;;;;;;;;14.67;13.33;;;;;17.88;nan;100664.75;4874171;29;45371;-84
2023/05/04 06:18:43;;;;;;;;;16.00;16.00;;;;;17.97;nan;100674.47;4873861;29;45353;-84
2023/05/04 06:21:48;;;;;;;;;12.67;12.67;;;;;18.28;nan;100666.75;4873977;29;45902;-84
2023/05/04 06:24:13;;;;;;;;;15.33;13.33;;;;;18.08;nan;100658.16;4872901;29;47462;-84
2023/05/04 06:26:38;;;;;;;;;12.67;12.67;;;;;18.19;nan;100657.00;4873156;29;52368;-85
2023/05/04 06:29:04;;;;;;;;;18.33;18.33;;;;;18.28;nan;100657.75;4872280;29;45889;-84
2023/05/04 06:31:29;;;;;;;;;13.00;13.00;;;;;18.40;nan;100660.25;4870531;29;45547;-84
2023/05/04 06:33:57;;;;;;;;;14.33;14.33;;;;;18.59;nan;100667.00;4869575;29;46916;-84
2023/05/04 06:36:24;;;;;;;;;15.33;14.33;;;;;18.76;nan;100657.69;4871085;29;45444;-83
2023/05/04 06:38:50;;;;;;;;;12.33;11.00;;;;;18.95;nan;100661.81;4854604;29;45441;-83
2023/05/04 06:41:16;;;;;;;;;14.67;14.67;;;;;19.11;nan;100664.19;4854865;29;45526;-83
2023/05/04 06:43:42;;;;;;;;;16.00;15.00;;;;;19.27;nan;100662.91;4876358;29;48298;-85
2023/05/04 06:46:11;;;;;;;;;15.67;15.00;;;;;19.21;nan;100671.13;4872031;29;45463;-84
2023/05/04 06:48:36;;;;;;;;;16.67;16.67;;;;;19.26;nan;100669.19;4866950;29;45455;-84
2023/05/04 06:51:01;;;;;;;;;9.00;9.00;;;;;19.32;nan;100660.97;4872111;29;45647;-84
2023/05/04 06:53:27;;;;;;;;;14.67;13.00;;;;;19.38;nan;100659.94;4855384;29;47322;-84
2023/05/04 06:55:52;;;;;;;;;11.33;11.00;;;;;19.47;nan;100662.44;4872173;29;45424;-83
2023/05/04 06:58:18;;;;;;;;;17.33;17.33;;;;;19.54;nan;100663.16;4870554;29;45308;-84
2023/05/04 07:00:45;;;;;;;;;15.00;15.00;;;;;19.50;nan;100645.28;4875454;29;44855;-84
2023/05/04 07:03:11;;;;;;;;;14.33;13.00;;;;;19.45;nan;100648.09;4869364;29;46988;-83
2023/05/04 07:05:47;;;;;;;;;16.00;13.67;;;;;19.44;nan;100658.91;4871601;29;45503;-83
2023/05/04 07:11:35;;;;;;;;;15.67;15.67;;;;;19.16;nan;100640.69;4873531;29;45405;-84
2023/05/04 07:14:00;;;;;;;;;16.00;14.33;;;;;19.18;nan;100645.09;4875011;29;47381;-83
2023/05/04 07:16:50;;;;;;;;;17.33;14.67;;;;;19.39;nan;100638.34;4869106;29;46387;-82
2023/05/04 07:19:15;;;;;;;;;18.67;16.67;;;;;19.45;nan;100649.88;4871682;29;45823;-84
2023/05/04 07:21:41;;;;;;;;;13.33;13.00;;;;;19.39;nan;100622.16;4854637;29;45375;-84
2023/05/04 07:24:53;;;;;;;;;;;;;;;;;;;;;
2023/05/04 07:27:19;;;;;;;;;17.33;16.00;;;;;19.56;nan;100678.38;4871099;29;72076;-84
2023/05/04 07:29:45;;;;;;;;;17.67;16.67;;;;;19.65;nan;100673.69;4880095;29;45592;-83
2023/05/04 07:32:20;;;;;;;;;15.67;14.67;;;;;20.07;nan;100670.88;4874985;29;45378;-84
2023/05/04 07:34:49;;;;;;;;;19.00;17.00;;;;;20.05;nan;100646.59;4868769;29;45517;-84
2023/05/04 07:37:15;;;;;;;;;14.67;14.33;;;;;20.13;nan;100678.81;4869509;29;45767;-84
2023/05/04 07:39:51;;;;;;;;;15.67;14.67;;;;;20.13;nan;100658.06;4871181;29;45974;-84
2023/05/04 07:42:19;;;;;;;;;15.33;15.00;;;;;20.14;nan;100659.00;4870547;29;46018;-84
2023/05/04 07:44:48;;;;;;;;;12.67;10.67;;;;;20.42;nan;100661.81;4871897;29;46546;-82
2023/05/04 07:47:15;;;;;;;;;15.67;15.00;;;;;20.30;nan;100621.63;4871654;29;45399;-83
2023/05/04 07:49:43;;;;;;;;;15.33;14.33;;;;;20.48;nan;100668.84;4870177;29;45801;-83
2023/05/04 07:52:26;;;;;;;;;15.33;14.33;;;;;20.71;nan;100649.31;4856303;29;45786;-83
2023/05/04 07:54:56;;;;;;;;;16.33;14.67;;;;;20.85;nan;100662.44;4876039;29;45449;-83
2023/05/04 07:57:37;;;;;;;;;14.33;13.33;;;;;20.76;nan;100626.63;4854450;29;45943;-82
2023/05/04 08:00:04;;;;;;;;;16.00;16.00;;;;;20.91;nan;100619.00;4856170;29;45607;-83
2023/05/04 08:02:30;;;;;;;;;15.00;12.33;;;;;21.16;nan;100646.16;4870165;29;45456;-84
2023/05/04 08:04:58;;;;;;;;;13.33;13.33;;;;;21.54;nan;100646.78;4857764;29;46511;-83
2023/05/04 08:07:24;;;;;;;;;17.00;14.67;;;;;21.57;nan;100652.06;4872281;29;45344;-83
2023/05/04 08:10:30;;;;;;;;;11.00;10.67;;;;;21.95;nan;100648.06;4858818;29;45374;-83
2023/05/04 08:12:56;;;;;;;;;14.00;13.67;;;;;21.64;nan;100637.41;4875658;29;45325;-82
2023/05/04 08:15:28;;;;;;;;;16.67;15.33;;;;;22.11;nan;100658.38;4875358;29;46600;-80
2023/05/04 08:17:53;;;;;;;;;16.00;15.00;;;;;21.94;nan;100645.44;4877201;29;45470;-83
2023/05/04 08:20:19;;;;;;;;;9.00;9.00;;;;;22.01;nan;100648.81;4874450;29;45443;-85
2023/05/04 08:22:54;;;;;;;;;14.33;14.33;;;;;22.17;nan;100631.94;4874384;29;45373;-83
2023/05/04 08:25:21;;;;;;;;;12.67;11.33;;;;;22.15;nan;100649.19;4870819;29;45419;-84
2023/05/04 08:27:47;;;;;;;;;13.67;13.67;;;;;22.27;nan;100658.75;4872628;29;45555;-83
2023/05/04 08:30:17;;;;;;;;;17.00;13.33;;;;;22.51;nan;100651.56;4857760;29;45388;-83
2023/05/04 08:32:42;;;;;;;;;14.00;14.00;;;;;22.43;nan;100651.84;4877069;29;45411;-83
2023/05/04 08:35:08;;;;;;;;;11.00;11.00;;;;;22.47;nan;100642.66;4882600;29;46573;-84
2023/05/04 08:37:41;;;;;;;;;11.00;11.00;;;;;22.54;nan;100627.94;4873805;29;45356;-83
2023/05/04 08:40:07;;;;;;;;;15.00;14.67;;;;;22.35;nan;100629.56;4869175;29;45597;-83
2023/05/04 08:42:33;;;;;;;;;15.33;13.67;;;;;22.28;nan;100628.91;4874122;29;44867;-83
2023/05/04 08:44:59;;;;;;;;;12.67;12.67;;;;;22.46;nan;100637.28;4865911;29;48185;-84
2023/05/04 08:47:28;;;;;;;;;14.33;12.67;;;;;22.64;nan;100630.28;4857297;29;44738;-83
2023/05/04 08:50:06;;;;;;;;;12.67;12.67;;;;;22.61;nan;100639.44;4877425;29;45466;-82
2023/05/04 08:52:42;;;;;;;;;8.33;8.00;;;;;22.82;nan;100613.31;4880396;29;45025;-82
2023/05/04 08:55:15;;;;;;;;;4.00;4.00;;;;;22.64;nan;100584.22;4881300;29;47146;-83
2023/05/04 08:57:50;;;;;;;;;17.33;14.67;;;;;22.65;nan;100586.00;4856877;29;45480;-83
2023/05/04 09:00:17;;;;;;;;;15.33;15.33;;;;;22.46;nan;100596.63;4869179;29;45465;-82
2023/05/04 09:02:44;;;;;;;;;11.67;11.67;;;;;22.49;nan;100618.22;4877339;29;45380;-83
2023/05/04 09:05:10;;;;;;;;;9.00;9.00;;;;;22.31;nan;100604.41;4880611;29;45419;-82
2023/05/04 09:07:43;;;;;;;;;17.00;15.33;;;;;22.56;nan;100641.41;4858216;29;45504;-82
2023/05/04 09:10:10;;;;;;;;;19.67;19.67;;;;;22.50;nan;100633.50;4878412;29;45668;-82
2023/05/04 09:15:59;;;;;;;;;12.67;12.67;;;;;22.63;nan;100624.00;4878493;29;45829;-83
2023/05/04 09:18:43;;;;;;;;;12.00;12.00;;;;;22.63;nan;100618.56;4878423;29;45701;-85
2023/05/04 09:21:10;;;;;;;;;14.33;13.67;;;;;22.57;nan;100611.56;4878658;29;45573;-84
2023/05/04 09:23:52;;;;;;;;;12.33;11.33;;;;;22.90;nan;100600.34;4880818;29;45425;-83
2023/05/04 09:26:31;;;;;;;;;12.33;12.33;;;;;23.19;nan;100598.34;4880389;29;46803;-82
2023/05/04 09:29:12;;;;;;;;;10.67;10.67;;;;;23.38;nan;100600.31;4877986;29;45725;-83
2023/05/04 09:31:48;;;;;;;;;13.00;12.33;;;;;23.51;nan;100604.25;4871847;29;44804;-84
2023/05/04 09:34:22;;;;;;;;;14.67;13.33;;;;;23.24;nan;100601.75;4877402;29;44871;-82
2023/05/04 09:37:04;;;;;;;;;15.00;12.33;;;;;23.35;nan;100596.78;4871763;29;47983;-83
2023/05/04 09:39:29;;;;;;;;;13.00;13.00;;;;;23.01;nan;100570.09;4870420;29;45491;-82
2023/05/04 09:41:58;;;;;;;;;12.33;11.33;;;;;23.07;nan;100579.88;4873468;29;45590;-83
2023/05/04 09:44:34;;;;;;;;;12.00;11.00;;;;;23.35;nan;100590.47;4868519;29;44918;-82
2023/05/04 09:46:59;;;;;;;;;14.33;14.33;;;;;23.26;nan;100580.84;4875689;29;45540;-81
2023/05/04 09:49:32;;;;;;;;;12.00;12.00;;;;;23.54;nan;100598.72;4867713;29;45969;-82
2023/05/04 09:52:01;;;;;;;;;13.33;13.00;;;;;23.43;nan;100588.31;4874743;29;45388;-81
2023/05/04 09:54:34;;;;;;;;;13.00;11.67;;;;;23.62;nan;100610.13;4874106;29;44994;-83
2023/05/04 09:57:21;;;;;;;;;9.00;9.00;;;;;23.44;nan;100583.75;4857121;29;47073;-83
2023/05/04 09:59:51;;;;;;;;;11.33;11.33;;;;;23.49;nan;100579.91;4857671;29;45691;-83
2023/05/04 10:02:17;;;;;;;;;12.33;12.33;;;;;23.75;nan;100597.81;4879593;29;45491;-82
2023/05/04 10:04:44;;;;;;;;;11.33;11.00;;;;;23.89;nan;100597.22;4877836;29;45310;-84
2023/05/04 10:07:22;;;;;;;;;12.33;12.33;;;;;24.09;nan;100607.22;4863782;29;45385;-82
2023/05/04 10:09:49;;;;;;;;;13.00;11.00;;;;;23.79;nan;100578.69;4861806;29;45439;-83
2023/05/04 10:12:38;;;;;;;;;10.00;9.33;;;;;23.88;nan;100594.59;4878475;29;45792;-83
2023/05/04 10:15:07;;;;;;;;;13.33;12.33;;;;;24.12;nan;100577.22;4862104;29;45665;-82
2023/05/04 10:18:00;;;;;;;;;10.33;10.33;;;;;24.29;nan;100605.44;4880540;29;48369;-83
2023/05/04 10:20:42;;;;;;;;;12.00;12.00;;;;;24.19;nan;100598.66;4883564;29;45346;-82
2023/05/04 10:23:43;;;;;;;;;10.00;10.00;;;;;24.30;nan;100596.38;4885579;29;44752;-83
2023/05/04 10:26:21;;;;;;;;;9.00;9.00;;;;;24.44;nan;100593.00;4877838;29;46000;-84
2023/05/04 10:29:32;;;;;;;;;10.00;9.00;;;;;24.61;nan;100574.09;4877969;29;45535;-81
2023/05/04 10:31:58;;;;;;;;;12.33;12.33;;;;;24.40;nan;100548.78;4861952;29;45511;-82
2023/05/04 10:34:35;;;;;;;;;13.00;12.33;;;;;24.71;nan;100582.72;4855406;29;44831;-82
2023/05/04 10:37:03;;;;;;;;;10.67;10.00;;;;;24.64;nan;100578.50;4867770;29;45468;-83
2023/05/04 10:39:34;;;;;;;;;11.00;10.67;;;;;24.77;nan;100574.25;4881447;29;45406;-85
2023/05/04 10:45:42;;;;;;;;;12.33;10.00;;;;;25.23;nan;100544.84;4881137;29;45370;-83
2023/05/04 10:48:09;;;;;;;;;11.33;11.00;;;;;25.22;nan;100562.13;4855043;29;45414;-84
2023/05/04 10:51:15;;;;;;;;;11.67;11.00;;;;;25.62;nan;100576.44;4876559;29;47227;-83
2023/05/04 10:53:41;;;;;;;;;11.33;11.33;;;;;25.50;nan;100556.16;4847100;29;45558;-82
2023/05/04 10:56:07;;;;;;;;;13.33;11.00;;;;;25.67;nan;100571.66;4873181;29;45475;-83
2023/05/04 10:58:33;;;;;;;;;15.33;15.00;;;;;25.59;nan;100548.47;4871622;29;45467;-84
2023/05/04 11:01:12;;;;;;;;;12.33;11.33;;;;;25.75;nan;100584.84;4865280;29;44976;-83
2023/05/04 11:03:40;;;;;;;;;11.67;11.33;;;;;25.73;nan;100555.00;4873031;29;45478;-83
2023/05/04 11:06:31;;;;;;;;;9.33;9.33;;;;;26.21;nan;100603.41;4874442;29;44848;-84
2023/05/04 11:09:00;;;;;;;;;9.00;9.00;;;;;26.24;nan;100587.78;4879618;29;45618;-85
2023/05/04 11:11:26;;;;;;;;;10.00;10.00;;;;;26.27;nan;100586.72;4870978;29;45373;-84
2023/05/04 11:13:55;;;;;;;;;10.67;10.67;;;;;26.45;nan;100574.81;4883041;29;44867;-84
2023/05/04 11:16:23;;;;;;;;;8.00;8.00;;;;;26.58;nan;100606.88;4867835;29;45437;-83
2023/05/04 11:25:41;;;;;;;;;11.33;11.33;;;;;26.60;nan;100619.50;4879059;29;44777;-83
2023/05/04 11:28:35;;;;;;;;;9.00;8.00;;;;;26.53;nan;100610.72;4878987;29;45411;-85
2023/05/04 11:31:12;;;;;;;;;11.00;11.00;;;;;26.46;nan;100622.94;4875345;29;45342;-85
2023/05/04 11:33:37;;;;;;;;;8.33;8.33;;;;;26.32;nan;100625.53;4858157;29;46957;-83
2023/05/04 11:36:19;;;;;;;;;9.33;9.33;;;;;26.42;nan;100629.53;4873876;29;45359;-85
2023/05/04 11:38:48;;;;;;;;;10.00;10.00;;;;;26.53;nan;100621.63;4866351;29;45857;-85
2023/05/04 11:41:14;;;;;;;;;11.33;10.67;;;;;26.40;nan;100598.72;4869787;29;44870;-84
2023/05/04 11:44:12;;;;;;;;;9.00;7.33;;;;;26.46;nan;100570.22;4877826;29;48500;-85
2023/05/04 11:46:50;;;;;;;;;13.00;11.33;;;;;26.35;nan;100579.88;4873884;29;45808;-85
2023/05/04 11:49:19;;;;;;;;;10.00;10.00;;;;;26.25;nan;100584.06;4859916;29;45985;-83
2023/05/04 11:52:03;;;;;;;;;11.00;11.00;;;;;26.36;nan;100618.94;4876394;29;44946;-85
2023/05/04 11:54:29;;;;;;;;;9.33;9.33;;;;;26.09;nan;100616.69;4859816;29;45387;-85
2023/05/04 11:56:55;;;;;;;;;8.67;8.67;;;;;26.11;nan;100603.88;4876881;29;45390;-84
2023/05/04 11:59:30;;;;;;;;;11.00;11.00;;;;;26.18;nan;100596.28;4867254;29;45296;-84